Time;durP1;ratioP1;P1;durP2;ratioP2;P2;SDS_P1;SDS_P2;PMS_P1;PMS_P2;Temp;Humidity;BMP_temperature;BMP_pressure;BME280_temperature;BME280_humidity;BME280_pressure;Samples;Min_cycle;Max_cycle;Signal;HPM_P1;HPM_P2
2022/09/05 00:00:18;;;;;;;5.20;1.55;;;17.10;99.90;;;;;;6205916;28;20046;-82
2022/09/05 00:03:25;;;;;;;3.65;1.40;;;17.10;99.90;;;;;;6205509;28;20074;-81
2022/09/05 00:06:32;;;;;;;5.97;1.40;;;17.10;99.90;;;;;;6206380;28;20050;-82
2022/09/05 00:09:56;;;;;;;4.37;1.73;;;17.10;99.90;;;;;;6204505;28;20053;-82
2022/09/05 00:13:01;;;;;;;3.92;1.83;;;17.10;99.90;;;;;;6204149;28;20050;-81
2022/09/05 00:16:34;;;;;;;2.33;1.50;;;17.10;99.90;;;;;;6204318;28;20125;-81
2022/09/05 00:19:46;;;;;;;6.57;1.92;;;17.00;99.90;;;;;;6203982;28;20393;-81
2022/09/05 00:22:56;;;;;;;5.43;1.92;;;17.00;99.90;;;;;;6203337;28;20061;-81
2022/09/05 00:26:13;;;;;;;5.03;1.98;;;16.90;99.90;;;;;;6179696;28;20054;-81
2022/09/05 00:29:26;;;;;;;3.30;1.85;;;17.00;99.90;;;;;;6179415;28;20660;-81
2022/09/05 00:32:40;;;;;;;2.95;1.45;;;17.00;99.90;;;;;;6179351;28;20527;-81
2022/09/05 00:36:06;;;;;;;3.65;2.30;;;17.00;99.90;;;;;;6179481;28;20046;-81
2022/09/05 00:39:12;;;;;;;4.35;1.58;;;17.00;99.90;;;;;;6179777;28;20051;-81
2022/09/05 00:42:17;;;;;;;4.03;1.60;;;17.00;99.90;;;;;;6203057;28;20050;-81
2022/09/05 00:45:29;;;;;;;7.25;1.58;;;17.00;99.90;;;;;;6203696;28;20051;-81
2022/09/05 00:48:38;;;;;;;5.65;1.80;;;16.90;99.90;;;;;;6204492;28;20241;-81
2022/09/05 00:51:46;;;;;;;7.45;1.80;;;16.80;99.90;;;;;;6203113;28;20412;-81
2022/09/05 00:55:05;;;;;;;3.35;1.67;;;16.80;99.90;;;;;;6204821;28;20519;-81
2022/09/05 00:58:27;;;;;;;;;;;16.80;99.90;;;;;;6204755;28;20522;-81
2022/09/05 01:01:37;;;;;;;2.25;1.30;;;16.70;99.90;;;;;;6205885;28;19921;-81
2022/09/05 01:04:48;;;;;;;2.40;1.38;;;16.60;99.90;;;;;;6209094;28;20065;-81
2022/09/05 01:08:07;;;;;;;3.08;1.35;;;16.60;99.90;;;;;;6219831;28;20090;-80
2022/09/05 01:11:19;;;;;;;2.92;1.40;;;16.60;99.90;;;;;;6232883;28;20076;-80
2022/09/05 01:14:33;;;;;;;5.00;1.60;;;16.50;99.90;;;;;;6216079;28;20046;-81
2022/09/05 01:17:50;;;;;;;7.05;1.90;;;16.50;99.90;;;;;;6213682;28;20553;-81
2022/09/05 01:21:12;;;;;;;2.47;1.42;;;16.50;99.90;;;;;;6213108;28;20526;-81
2022/09/05 01:24:29;;;;;;;3.58;1.75;;;16.40;99.90;;;;;;6212888;28;20047;-81
2022/09/05 01:27:45;;;;;;;5.75;2.13;;;16.50;99.90;;;;;;6210971;28;20046;-81
2022/09/05 01:30:52;;;;;;;3.33;1.63;;;16.40;99.90;;;;;;6210977;28;20508;-81
2022/09/05 01:33:59;;;;;;;2.47;1.70;;;16.40;99.90;;;;;;6210377;28;20050;-82
2022/09/05 01:37:07;;;;;;;3.15;2.10;;;16.40;99.90;;;;;;6210576;28;20046;-81
2022/09/05 01:40:19;;;;;;;6.15;2.00;;;16.40;99.90;;;;;;6208778;28;20053;-81
2022/09/05 01:43:33;;;;;;;2.65;1.83;;;16.40;99.90;;;;;;6208503;28;20061;-81
2022/09/05 01:46:43;;;;;;;3.45;1.83;;;16.40;99.90;;;;;;6207940;28;20053;-82
2022/09/05 01:49:55;;;;;;;6.43;2.08;;;16.40;99.90;;;;;;6208767;28;20050;-82
2022/09/05 01:53:33;;;;;;;6.18;1.48;;;16.30;99.90;;;;;;6210055;28;20546;-81
2022/09/05 01:56:44;;;;;;;5.95;2.28;;;16.30;99.90;;;;;;6208170;28;20133;-81
2022/09/05 01:59:54;;;;;;;7.40;2.30;;;16.20;99.90;;;;;;6207510;28;20053;-81
2022/09/05 02:03:04;;;;;;;4.55;1.70;;;16.00;99.90;;;;;;6208936;28;20526;-81
2022/09/05 02:06:34;;;;;;;3.42;2.08;;;16.10;99.90;;;;;;6209288;28;20449;-81
2022/09/05 02:09:51;;;;;;;3.47;1.98;;;16.10;99.90;;;;;;6207993;28;20054;-81
2022/09/05 02:13:01;;;;;;;3.08;1.58;;;16.10;99.90;;;;;;6206441;28;20170;-81
2022/09/05 02:16:12;;;;;;;4.03;1.58;;;16.10;99.90;;;;;;6208494;28;20049;-81
2022/09/05 02:19:18;;;;;;;4.57;2.03;;;16.10;99.90;;;;;;6206320;28;20582;-81
2022/09/05 02:22:26;;;;;;;7.20;3.53;;;16.10;99.90;;;;;;6207798;28;20051;-81
2022/09/05 02:25:39;;;;;;;2.78;1.80;;;16.10;99.90;;;;;;6207044;28;20056;-81
2022/09/05 02:28:49;;;;;;;4.43;2.05;;;16.10;99.90;;;;;;6206147;28;20746;-81
2022/09/05 02:32:00;;;;;;;4.90;1.90;;;16.10;99.90;;;;;;6207109;28;20097;-81
2022/09/05 02:35:13;;;;;;;3.22;2.20;;;16.10;99.90;;;;;;6208327;28;20109;-79
2022/09/05 02:38:21;;;;;;;3.55;1.80;;;16.10;99.90;;;;;;6208422;28;20057;-79
2022/09/05 02:41:31;;;;;;;3.78;1.85;;;16.10;99.90;;;;;;6207936;28;20072;-79
2022/09/05 02:44:38;;;;;;;4.75;2.38;;;16.10;99.90;;;;;;6207977;28;20096;-79
2022/09/05 02:47:48;;;;;;;3.63;2.10;;;16.10;99.90;;;;;;6208204;28;20141;-79
2022/09/05 02:51:01;;;;;;;5.50;1.88;;;16.00;99.90;;;;;;6204966;28;20518;-79
2022/09/05 02:54:07;;;;;;;3.22;1.52;;;16.00;99.90;;;;;;6207270;28;20050;-81
2022/09/05 02:57:27;;;;;;;4.95;3.30;;;16.00;99.90;;;;;;6208744;28;20053;-79
2022/09/05 03:00:37;;;;;;;5.18;1.90;;;16.00;99.90;;;;;;6210153;28;20050;-79
2022/09/05 03:03:49;;;;;;;4.80;2.30;;;16.00;99.90;;;;;;6208138;28;20050;-81
2022/09/05 03:07:09;;;;;;;3.72;2.40;;;16.00;99.90;;;;;;6208921;28;20042;-81
2022/09/05 03:10:25;;;;;;;3.40;1.92;;;15.90;99.90;;;;;;6208948;28;20054;-79
2022/09/05 03:14:12;;;;;;;6.25;2.03;;;15.90;99.90;;;;;;6208822;28;20054;-79
2022/09/05 03:17:40;;;;;;;8.30;1.77;;;15.90;99.90;;;;;;6184814;28;20046;-81
2022/09/05 03:21:28;;;;;;;3.75;1.92;;;15.80;99.90;;;;;;6207205;28;20415;-81
2022/09/05 03:24:57;;;;;;;3.28;1.80;;;15.80;99.90;;;;;;6206644;28;20053;-81
2022/09/05 03:28:57;;;;;;;3.35;2.13;;;15.80;99.90;;;;;;6200996;28;20107;-79
2022/09/05 03:32:36;;;;;;;3.40;2.17;;;15.80;99.90;;;;;;6182176;28;20052;-81
2022/09/05 03:36:16;;;;;;;4.15;1.90;;;15.90;99.90;;;;;;6205961;28;20415;-81
2022/09/05 03:39:55;;;;;;;5.43;2.10;;;15.90;99.90;;;;;;6207283;28;20050;-79
2022/09/05 03:43:29;;;;;;;2.00;1.60;;;15.90;99.90;;;;;;6207587;28;20560;-79
2022/09/05 03:47:01;;;;;;;2.38;1.80;;;15.90;99.90;;;;;;6171147;28;20508;-80
2022/09/05 03:50:17;;;;;;;5.95;2.03;;;15.80;99.90;;;;;;6204794;28;20507;-79
2022/09/05 03:53:41;;;;;;;2.92;2.10;;;15.80;99.90;;;;;;6205424;28;20412;-79
2022/09/05 03:57:11;;;;;;;20.80;3.80;;;15.80;99.90;;;;;;6205803;28;20101;-79
2022/09/05 04:00:21;;;;;;;3.58;2.03;;;15.80;99.90;;;;;;6197063;28;20042;-79
2022/09/05 04:03:27;;;;;;;3.13;2.10;;;15.80;99.90;;;;;;6206268;28;20076;-80
2022/09/05 04:06:35;;;;;;;3.65;1.92;;;15.80;99.90;;;;;;6206655;28;20050;-80
2022/09/05 04:09:44;;;;;;;2.45;1.92;;;15.80;99.90;;;;;;6205802;28;20046;-80
2022/09/05 04:12:53;;;;;;;5.22;2.67;;;15.80;99.90;;;;;;6205977;28;20057;-79
2022/09/05 04:16:09;;;;;;;4.65;1.65;;;15.80;99.90;;;;;;6205574;28;20042;-79
2022/09/05 04:19:17;;;;;;;7.63;2.17;;;15.80;99.90;;;;;;6203091;28;20054;-79
2022/09/05 04:22:25;;;;;;;3.75;2.17;;;15.80;99.90;;;;;;6202702;28;20060;-79
2022/09/05 04:25:40;;;;;;;5.00;1.90;;;15.90;99.90;;;;;;6202548;28;20054;-78
2022/09/05 04:28:55;;;;;;;5.88;3.15;;;15.80;99.90;;;;;;6200969;28;20056;-79
2022/09/05 04:32:06;;;;;;;14.30;3.83;;;15.90;99.90;;;;;;6209347;28;20046;-78
2022/09/05 04:35:22;;;;;;;5.70;2.72;;;15.90;99.90;;;;;;6225096;28;20118;-78
2022/09/05 04:38:43;;;;;;;3.38;1.98;;;15.90;99.90;;;;;;6208920;28;20039;-79
2022/09/05 04:41:48;;;;;;;4.95;2.08;;;15.90;99.90;;;;;;6203871;28;20050;-80
2022/09/05 04:44:55;;;;;;;3.90;2.15;;;15.90;99.90;;;;;;6204056;28;20126;-80
2022/09/05 04:48:02;;;;;;;3.45;2.33;;;15.90;99.90;;;;;;6203454;28;20050;-80
2022/09/05 04:51:09;;;;;;;6.10;3.53;;;15.90;99.90;;;;;;6203753;28;20057;-79
2022/09/05 04:54:25;;;;;;;4.25;2.22;;;15.90;99.90;;;;;;6203273;28;20054;-79
2022/09/05 04:57:34;;;;;;;4.72;2.00;;;15.90;99.90;;;;;;6202741;28;20061;-79
2022/09/05 05:00:43;;;;;;;4.63;2.40;;;15.90;99.90;;;;;;6203370;28;20057;-79
2022/09/05 05:03:44;;;;;;;;;;;15.90;99.90;;;;;;6203764;28;20042;-79
2022/09/05 05:06:53;;;;;;;9.35;4.28;;;16.00;99.90;;;;;;6203560;28;19957;-78
2022/09/05 05:09:59;;;;;;;2.75;2.00;;;16.00;99.90;;;;;;6202536;28;20078;-79
2022/09/05 05:13:10;;;;;;;7.88;2.08;;;16.10;99.90;;;;;;6202573;28;20134;-79
2022/09/05 05:16:18;;;;;;;5.22;2.42;;;16.20;99.90;;;;;;6202575;28;20046;-79
2022/09/05 05:19:25;;;;;;;6.05;2.10;;;16.30;99.90;;;;;;6201794;28;20046;-79
2022/09/05 05:22:27;;;;;;;8.32;2.53;;;16.50;99.90;;;;;;6202442;28;20080;-79
2022/09/05 05:25:31;;;;;;;4.90;1.60;;;16.70;99.90;;;;;;6202218;28;20046;-80
2022/09/05 05:28:48;;;;;;;3.45;2.58;;;16.80;99.90;;;;;;6202068;28;20547;-79
2022/09/05 05:31:53;;;;;;;4.55;2.00;;;17.00;99.90;;;;;;6201548;28;20043;-80
2022/09/05 05:34:59;;;;;;;4.78;2.00;;;17.20;99.90;;;;;;6201813;28;20050;-79
2022/09/05 05:38:21;;;;;;;2.88;1.70;;;17.40;99.90;;;;;;6201103;28;20056;-80
2022/09/05 05:41:27;;;;;;;8.02;2.95;;;17.60;99.90;;;;;;6201461;28;20046;-79
2022/09/05 05:44:34;;;;;;;4.10;2.08;;;17.90;99.90;;;;;;6202670;28;20079;-79
2022/09/05 05:47:42;;;;;;;3.03;1.50;;;18.10;99.90;;;;;;6201564;28;20047;-80
2022/09/05 05:50:56;;;;;;;3.50;1.45;;;18.40;99.90;;;;;;6207025;28;20551;-80
2022/09/05 05:54:06;;;;;;;2.60;1.17;;;18.70;99.90;;;;;;6205667;28;20050;-79
2022/09/05 05:57:35;;;;;;;6.28;1.92;;;18.90;99.90;;;;;;6205284;28;20173;-79
2022/09/05 06:00:57;;;;;;;3.20;1.40;;;19.10;99.90;;;;;;6205803;28;20393;-80
2022/09/05 06:04:27;;;;;;;2.75;1.95;;;19.30;99.90;;;;;;6206800;28;20412;-79
2022/09/05 06:07:38;;;;;;;5.70;1.75;;;19.30;99.90;;;;;;6205591;28;20050;-79
2022/09/05 06:11:02;;;;;;;4.95;1.30;;;19.50;99.90;;;;;;6206311;28;20065;-80
2022/09/05 06:14:48;;;;;;;5.07;1.58;;;19.50;99.90;;;;;;6205090;28;20408;-79
2022/09/05 06:18:30;;;;;;;7.10;1.63;;;19.50;99.90;;;;;;6204716;28;20388;-79
2022/09/05 06:21:55;;;;;;;3.08;1.52;;;19.60;99.90;;;;;;6205171;28;20047;-80
2022/09/05 06:25:42;;;;;;;2.35;1.55;;;19.80;99.90;;;;;;6204887;28;20050;-80
2022/09/05 06:28:56;;;;;;;3.97;2.00;;;20.00;99.90;;;;;;6211639;28;20508;-80
2022/09/05 06:32:07;;;;;;;6.55;1.85;;;20.10;99.90;;;;;;6207018;28;20046;-80
2022/09/05 06:35:25;;;;;;;3.83;2.28;;;20.20;99.90;;;;;;6207707;28;20062;-81
2022/09/05 06:38:53;;;;;;;3.38;2.25;;;20.20;99.90;;;;;;6207627;28;20039;-80
2022/09/05 06:42:15;;;;;;;10.43;3.65;;;20.20;99.90;;;;;;6205471;28;20503;-81
2022/09/05 06:45:31;;;;;;;5.82;3.30;;;20.20;99.90;;;;;;6204846;28;20539;-80
2022/09/05 06:48:42;;;;;;;7.97;2.38;;;20.20;99.90;;;;;;6204534;28;20053;-81
2022/09/05 06:52:19;;;;;;;6.43;4.10;;;20.30;99.90;;;;;;6204336;28;20045;-82
2022/09/05 06:55:48;;;;;;;4.82;2.30;;;20.30;99.90;;;;;;6173882;28;20055;-81
2022/09/05 06:59:23;;;;;;;;;;;20.40;99.90;;;;;;6196357;28;20046;-78
2022/09/05 07:02:33;;;;;;;4.55;2.58;;;20.50;99.90;;;;;;6229467;28;19921;-79
2022/09/05 07:05:39;;;;;;;8.05;2.85;;;20.60;99.90;;;;;;6226098;28;20046;-80
2022/09/05 07:08:50;;;;;;;8.02;2.13;;;20.80;99.90;;;;;;6227385;28;20046;-80
2022/09/05 07:12:03;;;;;;;3.20;2.58;;;21.10;99.90;;;;;;6227173;28;20052;-80
2022/09/05 07:15:14;;;;;;;3.92;2.45;;;21.70;99.40;;;;;;6227750;28;20057;-80
2022/09/05 07:18:25;;;;;;;8.82;2.38;;;22.20;98.60;;;;;;6228100;28;20049;-82
2022/09/05 07:21:45;;;;;;;6.43;2.50;;;22.90;97.50;;;;;;6228812;28;20092;-80
2022/09/05 07:24:49;;;;;;;5.47;1.73;;;24.40;95.50;;;;;;6227313;28;20046;-81
2022/09/05 07:27:56;;;;;;;9.13;2.50;;;26.70;90.90;;;;;;6226094;28;20583;-81
2022/09/05 07:31:02;;;;;;;6.60;2.13;;;27.70;83.80;;;;;;6226814;28;20060;-81
2022/09/05 07:34:14;;;;;;;7.85;3.15;;;28.60;80.40;;;;;;6225845;28;20053;-81
2022/09/05 07:37:21;;;;;;;2.90;1.88;;;29.70;73.10;;;;;;6226142;28;20042;-82
2022/09/05 07:40:24;;;;;;;7.97;1.95;;;30.50;70.10;;;;;;6225024;28;20507;-83
2022/09/05 07:43:32;;;;;;;6.85;2.40;;;31.70;65.90;;;;;;6225607;28;20069;-82
2022/09/05 07:46:37;;;;;;;11.25;2.58;;;32.30;62.20;;;;;;6227488;28;20068;-81
2022/09/05 07:49:41;;;;;;;4.20;1.73;;;32.70;59.10;;;;;;6226159;28;20046;-80
2022/09/05 07:52:45;;;;;;;4.82;1.92;;;32.40;58.20;;;;;;6224885;28;20046;-80
2022/09/05 07:55:52;;;;;;;5.10;1.77;;;31.60;59.40;;;;;;6250565;28;20046;-79
2022/09/05 07:58:57;;;;;;;6.53;2.13;;;31.60;59.60;;;;;;6238287;28;20041;-79
2022/09/05 08:02:00;;;;;;;5.63;1.90;;;31.60;58.70;;;;;;6227815;28;20057;-82
2022/09/05 08:05:04;;;;;;;1.67;1.20;;;31.80;58.30;;;;;;6226215;28;20426;-80
2022/09/05 08:08:10;;;;;;;4.70;1.67;;;31.80;58.00;;;;;;6226780;28;20042;-81
2022/09/05 08:11:14;;;;;;;7.68;1.48;;;32.20;56.80;;;;;;6225898;28;20049;-80
2022/09/05 08:14:30;;;;;;;5.07;1.20;;;32.70;55.50;;;;;;6225136;28;20427;-78
2022/09/05 08:17:34;;;;;;;5.55;1.90;;;33.30;54.00;;;;;;6225556;28;20045;-78
2022/09/05 08:20:42;;;;;;;7.05;1.67;;;33.90;52.30;;;;;;6226447;28;20422;-81
2022/09/05 08:23:54;;;;;;;2.65;1.73;;;34.60;51.20;;;;;;6226848;28;20053;-80
2022/09/05 08:27:02;;;;;;;2.83;2.05;;;35.20;49.30;;;;;;6228044;28;20050;-80
2022/09/05 08:30:09;;;;;;;5.25;1.65;;;35.70;48.40;;;;;;6218583;28;20395;-78
2022/09/05 08:33:14;;;;;;;3.15;1.95;;;36.20;47.50;;;;;;6226290;28;20046;-80
2022/09/05 08:36:25;;;;;;;3.25;1.60;;;36.60;46.60;;;;;;6225056;28;20048;-78
2022/09/05 08:39:28;;;;;;;3.10;1.50;;;36.80;45.70;;;;;;6227105;28;20418;-79
2022/09/05 08:42:40;;;;;;;5.68;1.50;;;37.10;45.10;;;;;;6226702;28;20057;-80
2022/09/05 08:45:50;;;;;;;3.78;1.45;;;37.30;44.60;;;;;;6225101;28;20041;-80
2022/09/05 08:49:28;;;;;;;8.18;1.48;;;37.50;44.10;;;;;;6225056;28;20045;-80
2022/09/05 08:52:40;;;;;;;5.25;1.60;;;37.70;44.50;;;;;;6226454;28;20053;-81
2022/09/05 08:55:47;;;;;;;1.70;1.20;;;38.20;43.00;;;;;;6230694;28;20050;-80
2022/09/05 08:58:56;;;;;;;4.60;1.30;;;38.40;42.10;;;;;;6225823;28;20065;-80
2022/09/05 09:02:25;;;;;;;2.78;1.15;;;38.70;41.60;;;;;;6225192;28;20054;-81
2022/09/05 09:05:52;;;;;;;4.63;2.08;;;39.00;41.20;;;;;;6224816;28;20054;-80
2022/09/05 09:09:09;;;;;;;2.78;1.40;;;39.20;40.20;;;;;;6227503;28;20034;-80
2022/09/05 09:12:19;;;;;;;1.70;0.95;;;38.80;40.00;;;;;;6227357;28;20085;-81
2022/09/05 09:15:24;;;;;;;2.70;1.27;;;38.50;40.00;;;;;;6226339;28;20050;-81
2022/09/05 09:18:40;;;;;;;7.75;1.35;;;38.60;40.20;;;;;;6226929;28;20046;-81
2022/09/05 09:21:53;;;;;;;1.85;1.02;;;38.60;39.80;;;;;;6226945;28;20046;-80
2022/09/05 09:25:03;;;;;;;2.70;0.90;;;38.50;39.80;;;;;;6230772;28;20050;-80
2022/09/05 09:28:42;;;;;;;3.55;1.45;;;38.60;39.80;;;;;;6230849;28;20060;-81
2022/09/05 09:32:06;;;;;;;1.70;1.13;;;38.80;40.00;;;;;;6229572;28;20041;-80
2022/09/05 09:35:21;;;;;;;3.25;1.08;;;38.90;39.50;;;;;;6230453;28;20066;-80
2022/09/05 09:38:32;;;;;;;11.68;4.97;;;38.70;39.60;;;;;;6229989;28;20072;-80
2022/09/05 09:41:48;;;;;;;3.08;1.42;;;38.80;39.80;;;;;;6229833;28;20517;-81
2022/09/05 09:45:20;;;;;;;2.67;1.20;;;38.80;39.80;;;;;;6229839;28;20050;-80
2022/09/05 09:48:46;;;;;;;1.98;1.05;;;38.40;39.50;;;;;;6226544;28;20038;-80
2022/09/05 09:52:34;;;;;;;5.50;1.67;;;37.60;41.40;;;;;;6230192;28;20050;-80
2022/09/05 09:56:13;;;;;;;2.75;1.23;;;36.60;41.90;;;;;;6156677;28;20048;-79
2022/09/05 09:59:50;;;;;;;2.67;1.40;;;35.60;42.70;;;;;;6166542;28;20045;-79
2022/09/05 10:03:16;;;;;;;2.67;1.23;;;34.90;44.20;;;;;;6232710;28;20064;-80
2022/09/05 10:07:01;;;;;;;5.28;1.08;;;34.50;44.70;;;;;;6231086;28;20079;-80
2022/09/05 10:10:42;;;;;;;2.65;1.10;;;34.40;45.10;;;;;;6232061;28;20423;-80
2022/09/05 10:14:20;;;;;;;2.72;1.00;;;34.30;45.40;;;;;;6221674;28;20133;-80
2022/09/05 10:17:38;;;;;;;2.42;1.00;;;34.20;45.50;;;;;;6232513;28;20072;-80
2022/09/05 10:20:58;;;;;;;3.40;0.93;;;34.30;46.00;;;;;;6230770;28;20042;-80
2022/09/05 10:24:53;;;;;;;1.70;0.80;;;34.40;45.60;;;;;;6231115;28;20038;-80
2022/09/05 10:28:04;;;;;;;2.10;0.98;;;34.50;45.10;;;;;;6229663;28;20042;-80
2022/09/05 10:31:15;;;;;;;3.25;1.00;;;34.30;44.50;;;;;;6231114;28;20111;-80
2022/09/05 10:34:22;;;;;;;1.20;0.88;;;34.30;45.40;;;;;;6227934;28;20045;-80
2022/09/05 10:37:28;;;;;;;;;;;34.40;45.20;;;;;;6229290;28;20045;-80
2022/09/05 10:40:34;;;;;;;2.25;1.00;;;34.50;45.00;;;;;;6229617;28;20477;-80
2022/09/05 10:43:47;;;;;;;2.22;1.00;;;34.80;44.70;;;;;;6231442;28;20479;-81
2022/09/05 10:46:59;;;;;;;2.78;1.38;;;35.10;44.20;;;;;;6233712;28;20048;-80
2022/09/05 10:50:10;;;;;;;2.95;0.60;;;35.40;43.10;;;;;;6231528;28;20038;-81
2022/09/05 10:53:27;;;;;;;1.52;0.90;;;35.50;42.50;;;;;;6231596;28;20056;-80
2022/09/05 10:56:39;;;;;;;6.57;1.27;;;35.70;42.70;;;;;;6232334;28;20042;-81
2022/09/05 11:00:01;;;;;;;2.60;1.20;;;35.90;41.70;;;;;;6231308;28;20300;-82
2022/09/05 11:03:03;;;;;;;1.05;0.77;;;36.00;42.10;;;;;;6227602;28;20132;-81
2022/09/05 11:06:11;;;;;;;2.00;0.60;;;36.20;41.90;;;;;;6227317;28;20042;-81
2022/09/05 11:09:23;;;;;;;1.73;0.70;;;36.40;40.90;;;;;;6226442;28;20046;-82
2022/09/05 11:12:36;;;;;;;2.45;0.80;;;36.50;40.70;;;;;;6232315;28;20054;-80
2022/09/05 11:15:53;;;;;;;4.85;1.00;;;36.60;40.50;;;;;;6242076;28;20045;-80
2022/09/05 11:18:59;;;;;;;1.63;1.08;;;36.80;40.20;;;;;;6222257;28;20042;-82
2022/09/05 11:22:03;;;;;;;1.30;0.90;;;36.90;40.00;;;;;;6226655;28;20045;-81
2022/09/05 11:25:11;;;;;;;3.13;0.80;;;37.00;39.90;;;;;;6203419;28;20663;-80
2022/09/05 11:28:18;;;;;;;1.33;0.70;;;37.00;39.70;;;;;;6210326;28;20053;-82
2022/09/05 11:31:23;;;;;;;;;;;37.10;39.40;;;;;;6227529;28;20060;-82
2022/09/05 11:34:57;;;;;;;2.42;1.13;;;37.10;39.30;;;;;;6226895;28;19922;-81
2022/09/05 11:38:33;;;;;;;1.30;0.77;;;36.90;38.80;;;;;;6225419;28;20056;-82
2022/09/05 11:42:07;;;;;;;1.52;0.95;;;36.70;40.00;;;;;;6193649;28;20045;-81
2022/09/05 11:45:33;;;;;;;0.95;0.52;;;36.80;40.50;;;;;;6226163;28;20439;-81
2022/09/05 11:49:05;;;;;;;1.40;0.68;;;36.90;40.20;;;;;;6226994;28;20050;-81
2022/09/05 11:52:57;;;;;;;2.85;0.98;;;37.00;39.30;;;;;;6186488;28;20411;-81
2022/09/05 11:56:31;;;;;;;3.17;0.60;;;37.10;39.50;;;;;;6176633;28;20416;-81
2022/09/05 12:00:07;;;;;;;3.33;0.70;;;37.30;40.00;;;;;;6233191;28;20054;-81
2022/09/05 12:03:46;;;;;;;7.22;1.08;;;37.60;40.60;;;;;;6250057;28;20064;-81
2022/09/05 12:07:24;;;;;;;3.63;0.80;;;37.90;40.50;;;;;;6250384;28;20056;-81
2022/09/05 12:10:34;;;;;;;2.15;0.77;;;38.00;39.80;;;;;;6250231;28;20064;-81
2022/09/05 12:13:41;;;;;;;3.15;0.60;;;38.10;38.10;;;;;;6250342;28;20072;-81
2022/09/05 12:16:52;;;;;;;0.93;0.60;;;38.20;37.90;;;;;;6248587;28;20133;-82
2022/09/05 12:20:01;;;;;;;10.15;0.95;;;38.10;37.40;;;;;;6233678;28;20411;-81
2022/09/05 12:23:10;;;;;;;1.77;0.93;;;38.10;37.80;;;;;;6200513;28;20050;-81
2022/09/05 12:26:18;;;;;;;1.23;0.70;;;38.10;38.00;;;;;;6199151;28;20172;-82
2022/09/05 12:29:23;;;;;;;1.52;0.82;;;38.10;37.80;;;;;;6198857;28;20053;-81
2022/09/05 12:32:25;;;;;;;2.85;0.80;;;38.20;37.50;;;;;;6199583;28;20042;-82
2022/09/05 12:35:37;;;;;;;3.22;0.80;;;38.40;37.20;;;;;;6199264;28;20518;-83
2022/09/05 12:38:47;;;;;;;4.50;1.05;;;38.70;36.80;;;;;;6198866;28;20049;-82
2022/09/05 12:41:59;;;;;;;0.77;0.60;;;39.20;36.90;;;;;;6198478;28;20051;-82
2022/09/05 12:45:09;;;;;;;2.38;0.50;;;39.60;36.00;;;;;;6199195;28;20070;-83
2022/09/05 12:48:14;;;;;;;3.00;0.88;;;39.80;35.50;;;;;;6204481;28;20049;-82
2022/09/05 12:51:19;;;;;;;3.50;0.57;;;39.90;35.70;;;;;;6227873;28;20060;-83
2022/09/05 12:54:26;;;;;;;2.17;0.80;;;40.00;35.90;;;;;;6228026;28;20077;-84
2022/09/05 12:57:33;;;;;;;4.72;0.65;;;40.00;35.70;;;;;;6227891;28;20045;-83
2022/09/05 13:00:43;;;;;;;2.40;0.55;;;40.00;35.50;;;;;;6244563;28;20046;-84
2022/09/05 13:03:49;;;;;;;1.67;0.50;;;40.00;35.20;;;;;;6230867;28;20132;-84
2022/09/05 13:06:59;;;;;;;1.93;0.43;;;40.00;34.90;;;;;;6232877;28;20065;-82
2022/09/05 13:10:04;;;;;;;3.70;0.52;;;40.20;34.60;;;;;;6230311;28;20056;-84
2022/09/05 13:13:11;;;;;;;1.83;0.63;;;40.30;34.00;;;;;;6231308;28;20455;-82
2022/09/05 13:16:21;;;;;;;1.85;0.60;;;40.40;33.20;;;;;;6230953;28;20074;-83
2022/09/05 13:19:36;;;;;;;2.17;0.32;;;40.40;32.10;;;;;;6230654;28;20439;-82
2022/09/05 13:22:42;;;;;;;3.42;0.50;;;40.20;32.40;;;;;;6228301;28;20089;-83
2022/09/05 13:25:52;;;;;;;0.70;0.30;;;40.00;32.30;;;;;;6231312;28;20053;-82
2022/09/05 13:28:57;;;;;;;2.85;0.52;;;39.90;32.10;;;;;;6230034;28;20523;-82
2022/09/05 13:32:08;;;;;;;1.83;0.52;;;39.80;31.60;;;;;;6231052;28;20041;-82
2022/09/05 13:35:18;;;;;;;0.52;0.30;;;39.80;32.30;;;;;;6231465;28;20472;-82
2022/09/05 13:38:39;;;;;;;1.25;0.50;;;39.60;33.00;;;;;;6228573;28;20083;-81
2022/09/05 13:41:44;;;;;;;1.10;0.30;;;39.40;32.00;;;;;;6228887;28;20054;-81
2022/09/05 13:44:52;;;;;;;7.25;0.50;;;39.30;32.50;;;;;;6227080;28;20046;-82
2022/09/05 13:48:16;;;;;;;1.55;0.22;;;39.20;32.60;;;;;;6227098;28;20038;-81
2022/09/05 13:51:30;;;;;;;1.23;0.40;;;39.00;31.50;;;;;;6220293;28;20061;-79
2022/09/05 13:54:39;;;;;;;0.80;0.38;;;39.00;31.40;;;;;;6227973;28;20058;-78
2022/09/05 13:57:44;;;;;;;1.27;0.40;;;38.80;31.90;;;;;;6226693;28;20042;-78
2022/09/05 14:01:16;;;;;;;4.47;0.75;;;38.70;31.60;;;;;;6243615;28;20049;-78
2022/09/05 14:04:50;;;;;;;1.58;0.52;;;38.50;33.20;;;;;;6204678;28;20059;-78
2022/09/05 14:08:33;;;;;;;6.82;1.00;;;38.40;34.10;;;;;;6205410;28;20051;-79
2022/09/05 14:11:55;;;;;;;1.23;0.50;;;38.50;34.70;;;;;;6203203;28;20042;-78
2022/09/05 14:14:59;;;;;;;1.38;0.82;;;38.70;34.60;;;;;;6206060;28;20051;-78
2022/09/05 14:18:09;;;;;;;1.13;0.50;;;38.80;33.60;;;;;;6208678;28;20054;-78
2022/09/05 14:21:14;;;;;;;2.58;0.40;;;38.90;33.30;;;;;;6229463;28;20482;-79
2022/09/05 14:24:20;;;;;;;3.78;0.52;;;39.10;32.90;;;;;;6230619;28;20053;-78
2022/09/05 14:27:24;;;;;;;1.43;0.40;;;39.20;32.80;;;;;;6231683;28;20137;-78
2022/09/05 14:30:38;;;;;;;4.68;0.75;;;39.20;32.90;;;;;;6228672;28;20430;-77
2022/09/05 14:33:54;;;;;;;1.85;0.40;;;39.30;32.40;;;;;;6226258;28;20041;-76
2022/09/05 14:37:04;;;;;;;1.77;0.88;;;39.40;31.80;;;;;;6227431;28;20046;-77
2022/09/05 14:40:32;;;;;;;0.98;0.50;;;39.50;32.30;;;;;;6232550;28;20038;-78
2022/09/05 14:44:02;;;;;;;1.08;0.40;;;39.70;31.90;;;;;;6186656;28;20050;-78
2022/09/05 14:47:35;;;;;;;3.35;0.43;;;39.80;30.40;;;;;;6226574;28;20073;-77
2022/09/05 14:50:55;;;;;;;0.70;0.32;;;39.90;30.00;;;;;;6222796;28;20045;-77
2022/09/05 14:54:00;;;;;;;1.27;0.40;;;39.90;29.90;;;;;;6224806;28;20078;-77
2022/09/05 14:57:04;;;;;;;0.90;0.40;;;39.70;30.10;;;;;;6226361;28;20050;-78
2022/09/05 15:00:13;;;;;;;0.85;0.40;;;39.70;30.40;;;;;;6225631;28;20069;-78
2022/09/05 15:03:16;;;;;;;3.15;0.65;;;39.80;30.10;;;;;;6236515;28;20057;-78
2022/09/05 15:06:20;;;;;;;1.00;0.40;;;39.80;30.20;;;;;;6227581;28;20046;-77
2022/09/05 15:09:22;;;;;;;1.45;0.30;;;39.90;30.00;;;;;;6222994;28;20415;-77
2022/09/05 15:12:24;;;;;;;0.93;0.40;;;39.70;30.00;;;;;;6223180;28;20077;-77
2022/09/05 15:15:32;;;;;;;1.95;0.30;;;39.50;29.90;;;;;;6224362;28;20061;-77
2022/09/05 15:18:38;;;;;;;3.03;0.30;;;39.40;29.70;;;;;;6220035;28;20052;-77
2022/09/05 15:21:40;;;;;;;2.83;0.57;;;39.20;29.50;;;;;;6222706;28;20046;-77
2022/09/05 15:24:41;;;;;;;1.85;0.22;;;39.00;29.90;;;;;;6223698;28;20418;-76
2022/09/05 15:27:44;;;;;;;1.60;0.47;;;38.60;29.90;;;;;;6208211;28;20057;-76
2022/09/05 15:30:58;;;;;;;2.05;0.43;;;38.20;30.00;;;;;;6212877;28;20100;-77
2022/09/05 15:34:19;;;;;;;0.93;0.32;;;37.70;30.00;;;;;;6223359;28;20050;-77
2022/09/05 15:37:25;;;;;;;2.58;0.30;;;37.20;29.90;;;;;;6222956;28;20042;-77
2022/09/05 15:40:27;;;;;;;1.23;0.60;;;36.60;29.70;;;;;;6223091;28;20495;-77
2022/09/05 15:43:30;;;;;;;1.70;0.40;;;36.10;30.10;;;;;;6223022;28;20054;-76
2022/09/05 15:46:56;;;;;;;1.52;0.43;;;35.80;30.60;;;;;;6223248;28;20084;-78
2022/09/05 15:50:01;;;;;;;2.15;0.43;;;35.40;31.20;;;;;;6222559;28;20041;-76
2022/09/05 15:53:02;;;;;;;5.85;0.93;;;35.20;31.10;;;;;;6198092;28;20058;-76
2022/09/05 15:56:18;;;;;;;0.93;0.50;;;34.90;32.80;;;;;;6198604;28;20411;-77
2022/09/05 15:59:22;;;;;;;0.85;0.43;;;34.60;34.30;;;;;;6197987;28;20463;-77
2022/09/05 16:02:28;;;;;;;5.32;1.30;;;34.40;35.80;;;;;;6218582;28;20053;-76
2022/09/05 16:05:30;;;;;;;1.23;0.60;;;34.10;36.60;;;;;;6199106;28;20074;-76
2022/09/05 16:08:35;;;;;;;2.45;0.45;;;33.80;36.90;;;;;;6199051;28;20530;-77
2022/09/05 16:11:40;;;;;;;1.98;0.60;;;33.40;38.20;;;;;;6199474;28;20058;-76
2022/09/05 16:14:46;;;;;;;2.53;0.30;;;33.10;39.50;;;;;;6198234;28;20057;-76
2022/09/05 16:17:51;;;;;;;0.68;0.32;;;32.70;39.60;;;;;;6196450;28;20050;-76
2022/09/05 16:20:56;;;;;;;4.25;0.60;;;32.50;40.40;;;;;;6219568;28;20046;-76
2022/09/05 16:24:02;;;;;;;3.13;1.10;;;32.30;39.20;;;;;;6221012;28;20041;-76
2022/09/05 16:27:05;;;;;;;1.20;0.60;;;32.10;40.40;;;;;;6221657;28;20057;-76
2022/09/05 16:30:08;;;;;;;2.10;0.52;;;32.00;41.70;;;;;;6220175;28;20046;-77
2022/09/05 16:33:16;;;;;;;1.10;0.70;;;31.90;37.50;;;;;;6222970;28;20503;-77
2022/09/05 16:36:22;;;;;;;4.18;2.85;;;31.80;38.90;;;;;;6221845;28;20432;-77
2022/09/05 16:39:27;;;;;;;1.48;0.77;;;31.90;40.10;;;;;;6221217;28;20050;-79
2022/09/05 16:42:36;;;;;;;1.33;0.40;;;31.90;37.90;;;;;;6223863;28;20456;-77
2022/09/05 16:45:44;;;;;;;0.85;0.40;;;31.90;37.10;;;;;;6220740;28;20054;-76
2022/09/05 16:48:52;;;;;;;0.55;0.30;;;32.00;35.60;;;;;;6221885;28;20419;-78
2022/09/05 16:52:01;;;;;;;6.60;0.80;;;31.90;36.20;;;;;;6221935;28;20034;-76